Portada
METAR-TAF:

METAR-TAF

Aeropuertos :

Vigo, España

Aeropuerto de Vigo

latitud: 42-13N, longitud: 008-38W, altitud: 264 m

Observación

El informe se hizo hace 30 minutos, a las 15:30 UTC
Viento 7 kt del oeste-suroeste, variando entre suroeste y oeste-noroeste
Temperatura 14°C
Humedad 31%
Presión 1005 hPa
Visibilidad 10 km o más
sin nubes por debajo de 1500 m y sin presencia de cumulonimbus.

METAR: LEVX 241530Z 25007KT 230V300 CAVOK 14/M03 Q1005 NOSIG

Hora: 17:00 (16:00 UTC)

Pronóstico

El informe se hizo hace 5 horas y 0 minutos, a las 11:00 UTC
Pronóstico válido del 24 a las 12 UTC al 25 a las 12 UTC
Viento 4 kt con dirección variable
Visibilidad 10 km o más
sin nubes por debajo de 1500 m y sin presencia de cumulonimbus.
Probabilidad 40%
del 24 a las 13 UTC al 24 a las 18 UTC
Viento 10 kt del oeste

TAF: LEVX 241100Z 2412/2512 VRB04KT CAVOK TX13/2414Z TN01/2507Z PROB40 2413/2418 28010KT

Observaciones y pronósticos meteorológicos de más de 4000 aeropuertos (mensajes METAR y TAF).

Los puntos amarillos y rojos representan las estaciones disponibles.

Ponga el ratón en el punto deseado para ver el nombre de la estación.

Haga clic para ver las observaciones y los pronósticos meteorológicos.

Para cambiar el mapa : haga clic en los botones verdes con una cruz de color negro para hacer un zoom, en el botón verde con un guión para alejar o en las flechas verdes para mapas adyacentes.


METAR-TAF: